sensor_id;sensor_type;location;lat;lon;timestamp;P1;durP1;ratioP1;P2;durP2;ratioP2
9892;SDS011;4985;49.092;8.542;2022-07-21T00:02:02;8.77;;;6.57;;
9892;SDS011;4985;49.092;8.542;2022-07-21T00:04:28;9.30;;;7.32;;
9892;SDS011;4985;49.092;8.542;2022-07-21T00:06:55;7.85;;;6.80;;
9892;SDS011;4985;49.092;8.542;2022-07-21T00:09:22;8.68;;;7.25;;
9892;SDS011;4985;49.092;8.542;2022-07-21T00:11:48;7.32;;;6.28;;
9892;SDS011;4985;49.092;8.542;2022-07-21T00:14:15;6.65;;;5.97;;
9892;SDS011;4985;49.092;8.542;2022-07-21T00:16:43;8.98;;;6.62;;
9892;SDS011;4985;49.092;8.542;2022-07-21T00:19:10;8.00;;;6.12;;
9892;SDS011;4985;49.092;8.542;2022-07-21T00:21:37;7.45;;;6.70;;
9892;SDS011;4985;49.092;8.542;2022-07-21T00:24:04;7.25;;;6.12;;
9892;SDS011;4985;49.092;8.542;2022-07-21T00:26:31;8.80;;;6.47;;
9892;SDS011;4985;49.092;8.542;2022-07-21T00:28:57;8.52;;;6.50;;
9892;SDS011;4985;49.092;8.542;2022-07-21T00:31:24;8.57;;;6.40;;
9892;SDS011;4985;49.092;8.542;2022-07-21T00:33:52;9.30;;;6.87;;
9892;SDS011;4985;49.092;8.542;2022-07-21T00:36:19;8.27;;;6.85;;
9892;SDS011;4985;49.092;8.542;2022-07-21T00:38:46;7.35;;;6.40;;
9892;SDS011;4985;49.092;8.542;2022-07-21T00:41:13;6.85;;;5.87;;
9892;SDS011;4985;49.092;8.542;2022-07-21T00:43:40;9.68;;;6.25;;
9892;SDS011;4985;49.092;8.542;2022-07-21T00:46:06;10.32;;;6.03;;
9892;SDS011;4985;49.092;8.542;2022-07-21T00:48:33;11.00;;;6.93;;
9892;SDS011;4985;49.092;8.542;2022-07-21T00:51:01;7.18;;;6.47;;
9892;SDS011;4985;49.092;8.542;2022-07-21T00:53:28;7.05;;;6.03;;
9892;SDS011;4985;49.092;8.542;2022-07-21T00:55:54;7.90;;;5.28;;
9892;SDS011;4985;49.092;8.542;2022-07-21T00:58:22;5.97;;;5.20;;
9892;SDS011;4985;49.092;8.542;2022-07-21T01:00:50;8.13;;;6.30;;
9892;SDS011;4985;49.092;8.542;2022-07-21T01:03:17;6.90;;;5.72;;
9892;SDS011;4985;49.092;8.542;2022-07-21T01:05:43;10.32;;;6.20;;
9892;SDS011;4985;49.092;8.542;2022-07-21T01:08:11;8.55;;;5.80;;
9892;SDS011;4985;49.092;8.542;2022-07-21T01:10:38;6.18;;;5.30;;
9892;SDS011;4985;49.092;8.542;2022-07-21T01:13:06;7.12;;;6.43;;
9892;SDS011;4985;49.092;8.542;2022-07-21T01:15:34;7.05;;;5.62;;
9892;SDS011;4985;49.092;8.542;2022-07-21T01:18:01;12.55;;;6.00;;
9892;SDS011;4985;49.092;8.542;2022-07-21T01:20:27;8.25;;;6.43;;
9892;SDS011;4985;49.092;8.542;2022-07-21T01:23:00;8.35;;;5.95;;
9892;SDS011;4985;49.092;8.542;2022-07-21T01:25:27;10.30;;;6.90;;
9892;SDS011;4985;49.092;8.542;2022-07-21T01:27:53;7.82;;;6.15;;
9892;SDS011;4985;49.092;8.542;2022-07-21T01:30:20;7.10;;;6.22;;
9892;SDS011;4985;49.092;8.542;2022-07-21T01:32:47;8.05;;;6.12;;
9892;SDS011;4985;49.092;8.542;2022-07-21T01:35:14;7.32;;;6.47;;
9892;SDS011;4985;49.092;8.542;2022-07-21T01:37:42;10.32;;;6.72;;
9892;SDS011;4985;49.092;8.542;2022-07-21T01:40:12;11.73;;;7.12;;
9892;SDS011;4985;49.092;8.542;2022-07-21T01:43:12;7.05;;;6.28;;
9892;SDS011;4985;49.092;8.542;2022-07-21T01:45:39;7.40;;;6.45;;
9892;SDS011;4985;49.092;8.542;2022-07-21T01:48:06;9.88;;;6.50;;
9892;SDS011;4985;49.092;8.542;2022-07-21T01:50:33;9.15;;;5.87;;
9892;SDS011;4985;49.092;8.542;2022-07-21T01:52:59;11.50;;;6.35;;
9892;SDS011;4985;49.092;8.542;2022-07-21T01:55:27;9.90;;;6.12;;
9892;SDS011;4985;49.092;8.542;2022-07-21T01:57:55;6.55;;;5.57;;
9892;SDS011;4985;49.092;8.542;2022-07-21T02:00:22;7.55;;;6.05;;
9892;SDS011;4985;49.092;8.542;2022-07-21T02:02:49;8.10;;;6.45;;
9892;SDS011;4985;49.092;8.542;2022-07-21T02:05:16;10.85;;;6.82;;
9892;SDS011;4985;49.092;8.542;2022-07-21T02:07:42;8.93;;;6.32;;
9892;SDS011;4985;49.092;8.542;2022-07-21T02:10:09;9.73;;;6.47;;
9892;SDS011;4985;49.092;8.542;2022-07-21T02:12:37;9.23;;;5.82;;
9892;SDS011;4985;49.092;8.542;2022-07-21T02:15:04;8.82;;;5.90;;
9892;SDS011;4985;49.092;8.542;2022-07-21T02:17:31;8.25;;;6.65;;
9892;SDS011;4985;49.092;8.542;2022-07-21T02:19:58;9.57;;;6.15;;
9892;SDS011;4985;49.092;8.542;2022-07-21T02:22:24;6.97;;;6.15;;
9892;SDS011;4985;49.092;8.542;2022-07-21T02:24:51;10.85;;;6.47;;
9892;SDS011;4985;49.092;8.542;2022-07-21T02:27:18;10.13;;;6.22;;
9892;SDS011;4985;49.092;8.542;2022-07-21T02:29:46;7.45;;;6.32;;
9892;SDS011;4985;49.092;8.542;2022-07-21T02:32:12;9.20;;;6.28;;
9892;SDS011;4985;49.092;8.542;2022-07-21T02:34:39;8.48;;;6.10;;
9892;SDS011;4985;49.092;8.542;2022-07-21T02:37:06;8.00;;;6.55;;
9892;SDS011;4985;49.092;8.542;2022-07-21T02:39:32;7.43;;;6.20;;
9892;SDS011;4985;49.092;8.542;2022-07-21T02:41:59;7.00;;;6.28;;
9892;SDS011;4985;49.092;8.542;2022-07-21T02:44:25;9.18;;;6.65;;
9892;SDS011;4985;49.092;8.542;2022-07-21T02:46:55;9.65;;;5.90;;
9892;SDS011;4985;49.092;8.542;2022-07-21T02:49:22;9.55;;;5.85;;
9892;SDS011;4985;49.092;8.542;2022-07-21T02:51:49;7.35;;;6.25;;
9892;SDS011;4985;49.092;8.542;2022-07-21T02:54:15;8.68;;;6.05;;
9892;SDS011;4985;49.092;8.542;2022-07-21T02:56:42;8.50;;;6.53;;
9892;SDS011;4985;49.092;8.542;2022-07-21T02:59:08;8.23;;;6.35;;
9892;SDS011;4985;49.092;8.542;2022-07-21T03:01:35;8.90;;;6.93;;
9892;SDS011;4985;49.092;8.542;2022-07-21T03:04:03;8.55;;;7.12;;
9892;SDS011;4985;49.092;8.542;2022-07-21T03:06:30;9.38;;;6.37;;
9892;SDS011;4985;49.092;8.542;2022-07-21T03:08:56;10.73;;;6.40;;
9892;SDS011;4985;49.092;8.542;2022-07-21T03:11:23;7.47;;;6.35;;
9892;SDS011;4985;49.092;8.542;2022-07-21T03:13:50;8.50;;;6.80;;
9892;SDS011;4985;49.092;8.542;2022-07-21T03:16:17;10.57;;;6.53;;
9892;SDS011;4985;49.092;8.542;2022-07-21T03:18:44;8.40;;;5.95;;
9892;SDS011;4985;49.092;8.542;2022-07-21T03:21:12;9.57;;;6.70;;
9892;SDS011;4985;49.092;8.542;2022-07-21T03:23:38;8.43;;;6.68;;
9892;SDS011;4985;49.092;8.542;2022-07-21T03:26:10;8.18;;;6.70;;
9892;SDS011;4985;49.092;8.542;2022-07-21T03:28:37;8.93;;;6.22;;
9892;SDS011;4985;49.092;8.542;2022-07-21T03:31:04;7.35;;;6.45;;
9892;SDS011;4985;49.092;8.542;2022-07-21T03:33:30;7.80;;;6.18;;
9892;SDS011;4985;49.092;8.542;2022-07-21T03:35:58;9.98;;;6.28;;
9892;SDS011;4985;49.092;8.542;2022-07-21T03:38:26;8.88;;;6.45;;
9892;SDS011;4985;49.092;8.542;2022-07-21T03:40:52;8.10;;;6.37;;
9892;SDS011;4985;49.092;8.542;2022-07-21T03:43:19;9.73;;;5.95;;
9892;SDS011;4985;49.092;8.542;2022-07-21T03:45:46;8.55;;;6.50;;
9892;SDS011;4985;49.092;8.542;2022-07-21T03:48:12;7.97;;;6.70;;
9892;SDS011;4985;49.092;8.542;2022-07-21T03:50:41;7.90;;;6.90;;
9892;SDS011;4985;49.092;8.542;2022-07-21T03:53:08;9.05;;;7.47;;
9892;SDS011;4985;49.092;8.542;2022-07-21T03:55:36;7.97;;;6.45;;
9892;SDS011;4985;49.092;8.542;2022-07-21T03:58:04;9.85;;;7.03;;
9892;SDS011;4985;49.092;8.542;2022-07-21T04:00:37;11.32;;;6.78;;
9892;SDS011;4985;49.092;8.542;2022-07-21T04:03:05;10.07;;;7.10;;
9892;SDS011;4985;49.092;8.542;2022-07-21T04:05:33;10.75;;;7.78;;
9892;SDS011;4985;49.092;8.542;2022-07-21T04:08:00;9.05;;;7.65;;
9892;SDS011;4985;49.092;8.542;2022-07-21T04:10:28;9.77;;;7.07;;
9892;SDS011;4985;49.092;8.542;2022-07-21T04:12:58;15.25;;;8.15;;
9892;SDS011;4985;49.092;8.542;2022-07-21T04:15:26;10.02;;;7.53;;
9892;SDS011;4985;49.092;8.542;2022-07-21T04:17:53;8.70;;;7.72;;
9892;SDS011;4985;49.092;8.542;2022-07-21T04:20:20;12.00;;;7.60;;
9892;SDS011;4985;49.092;8.542;2022-07-21T04:22:47;10.57;;;7.75;;
9892;SDS011;4985;49.092;8.542;2022-07-21T04:25:15;9.00;;;7.65;;
9892;SDS011;4985;49.092;8.542;2022-07-21T04:27:44;9.77;;;8.30;;
9892;SDS011;4985;49.092;8.542;2022-07-21T04:30:13;9.68;;;7.65;;
9892;SDS011;4985;49.092;8.542;2022-07-21T04:32:41;8.13;;;7.32;;
9892;SDS011;4985;49.092;8.542;2022-07-21T04:35:08;12.13;;;7.37;;
9892;SDS011;4985;49.092;8.542;2022-07-21T04:37:35;9.48;;;8.45;;
9892;SDS011;4985;49.092;8.542;2022-07-21T04:40:03;10.48;;;7.75;;
9892;SDS011;4985;49.092;8.542;2022-07-21T04:42:33;9.23;;;8.00;;
9892;SDS011;4985;49.092;8.542;2022-07-21T04:45:00;7.80;;;7.03;;
9892;SDS011;4985;49.092;8.542;2022-07-21T04:47:28;7.82;;;7.00;;
9892;SDS011;4985;49.092;8.542;2022-07-21T04:49:55;10.13;;;7.45;;
9892;SDS011;4985;49.092;8.542;2022-07-21T04:52:22;8.30;;;6.70;;
9892;SDS011;4985;49.092;8.542;2022-07-21T04:54:48;7.60;;;6.80;;
9892;SDS011;4985;49.092;8.542;2022-07-21T04:57:15;8.50;;;6.90;;
9892;SDS011;4985;49.092;8.542;2022-07-21T04:59:42;8.40;;;6.90;;
9892;SDS011;4985;49.092;8.542;2022-07-21T05:02:08;8.32;;;6.85;;
9892;SDS011;4985;49.092;8.542;2022-07-21T05:04:36;9.77;;;7.50;;
9892;SDS011;4985;49.092;8.542;2022-07-21T05:07:03;8.38;;;6.93;;
9892;SDS011;4985;49.092;8.542;2022-07-21T05:09:30;8.05;;;7.20;;
9892;SDS011;4985;49.092;8.542;2022-07-21T05:11:56;8.45;;;7.03;;
9892;SDS011;4985;49.092;8.542;2022-07-21T05:14:23;7.55;;;6.75;;
9892;SDS011;4985;49.092;8.542;2022-07-21T05:16:49;8.80;;;7.07;;
9892;SDS011;4985;49.092;8.542;2022-07-21T05:19:16;9.15;;;6.90;;
9892;SDS011;4985;49.092;8.542;2022-07-21T05:21:44;8.23;;;6.85;;
9892;SDS011;4985;49.092;8.542;2022-07-21T05:24:12;8.93;;;7.37;;
9892;SDS011;4985;49.092;8.542;2022-07-21T05:26:38;7.60;;;6.57;;
9892;SDS011;4985;49.092;8.542;2022-07-21T05:29:05;8.90;;;7.20;;
9892;SDS011;4985;49.092;8.542;2022-07-21T05:31:32;12.18;;;8.60;;
9892;SDS011;4985;49.092;8.542;2022-07-21T05:33:58;9.18;;;7.45;;
9892;SDS011;4985;49.092;8.542;2022-07-21T05:36:25;8.27;;;7.07;;
9892;SDS011;4985;49.092;8.542;2022-07-21T05:38:53;9.43;;;7.80;;
9892;SDS011;4985;49.092;8.542;2022-07-21T05:41:20;7.57;;;6.82;;
9892;SDS011;4985;49.092;8.542;2022-07-21T05:43:47;7.85;;;6.93;;
9892;SDS011;4985;49.092;8.542;2022-07-21T05:46:13;11.45;;;7.75;;
9892;SDS011;4985;49.092;8.542;2022-07-21T05:48:40;11.55;;;7.07;;
9892;SDS011;4985;49.092;8.542;2022-07-21T05:51:07;8.02;;;6.65;;
9892;SDS011;4985;49.092;8.542;2022-07-21T05:53:33;10.27;;;7.47;;
9892;SDS011;4985;49.092;8.542;2022-07-21T05:56:01;9.80;;;7.87;;
9892;SDS011;4985;49.092;8.542;2022-07-21T05:58:28;10.15;;;8.13;;
9892;SDS011;4985;49.092;8.542;2022-07-21T06:00:54;10.20;;;8.10;;
9892;SDS011;4985;49.092;8.542;2022-07-21T06:03:38;9.90;;;7.10;;
9892;SDS011;4985;49.092;8.542;2022-07-21T06:06:07;8.93;;;7.28;;
9892;SDS011;4985;49.092;8.542;2022-07-21T06:08:33;8.63;;;6.95;;
9892;SDS011;4985;49.092;8.542;2022-07-21T06:11:02;10.18;;;7.07;;
9892;SDS011;4985;49.092;8.542;2022-07-21T06:13:28;9.73;;;7.60;;
9892;SDS011;4985;49.092;8.542;2022-07-21T06:15:55;9.50;;;7.00;;
9892;SDS011;4985;49.092;8.542;2022-07-21T06:18:22;8.05;;;6.60;;
9892;SDS011;4985;49.092;8.542;2022-07-21T06:20:48;9.88;;;6.28;;
9892;SDS011;4985;49.092;8.542;2022-07-21T06:23:15;8.35;;;6.43;;
9892;SDS011;4985;49.092;8.542;2022-07-21T06:25:42;7.75;;;5.72;;
9892;SDS011;4985;49.092;8.542;2022-07-21T06:28:10;6.37;;;5.78;;
9892;SDS011;4985;49.092;8.542;2022-07-21T06:30:37;8.82;;;7.15;;
9892;SDS011;4985;49.092;8.542;2022-07-21T06:33:04;9.15;;;6.80;;
9892;SDS011;4985;49.092;8.542;2022-07-21T06:35:30;10.40;;;6.68;;
9892;SDS011;4985;49.092;8.542;2022-07-21T06:37:57;9.70;;;6.87;;
9892;SDS011;4985;49.092;8.542;2022-07-21T06:40:24;8.02;;;6.22;;
9892;SDS011;4985;49.092;8.542;2022-07-21T06:42:50;9.15;;;6.72;;
9892;SDS011;4985;49.092;8.542;2022-07-21T06:45:18;9.63;;;6.93;;
9892;SDS011;4985;49.092;8.542;2022-07-21T06:47:45;7.35;;;6.00;;
9892;SDS011;4985;49.092;8.542;2022-07-21T06:50:12;11.15;;;7.30;;
9892;SDS011;4985;49.092;8.542;2022-07-21T06:52:39;7.32;;;6.40;;
9892;SDS011;4985;49.092;8.542;2022-07-21T06:55:07;7.03;;;6.15;;
9892;SDS011;4985;49.092;8.542;2022-07-21T06:57:35;7.53;;;6.00;;
9892;SDS011;4985;49.092;8.542;2022-07-21T07:00:03;6.93;;;5.70;;
9892;SDS011;4985;49.092;8.542;2022-07-21T07:02:32;7.62;;;5.87;;
9892;SDS011;4985;49.092;8.542;2022-07-21T07:04:58;7.03;;;5.50;;
9892;SDS011;4985;49.092;8.542;2022-07-21T07:07:25;7.85;;;5.43;;
9892;SDS011;4985;49.092;8.542;2022-07-21T07:09:52;7.62;;;5.30;;
9892;SDS011;4985;49.092;8.542;2022-07-21T07:12:18;8.48;;;6.28;;
9892;SDS011;4985;49.092;8.542;2022-07-21T07:14:45;7.55;;;5.20;;
9892;SDS011;4985;49.092;8.542;2022-07-21T07:17:15;8.07;;;5.20;;
9892;SDS011;4985;49.092;8.542;2022-07-21T07:19:43;5.87;;;5.07;;
9892;SDS011;4985;49.092;8.542;2022-07-21T07:22:10;8.35;;;4.50;;
9892;SDS011;4985;49.092;8.542;2022-07-21T07:24:37;8.25;;;4.75;;
9892;SDS011;4985;49.092;8.542;2022-07-21T07:27:04;7.57;;;4.50;;
9892;SDS011;4985;49.092;8.542;2022-07-21T07:29:31;6.00;;;4.65;;
9892;SDS011;4985;49.092;8.542;2022-07-21T07:31:58;5.80;;;5.20;;
9892;SDS011;4985;49.092;8.542;2022-07-21T07:34:24;7.65;;;4.20;;
9892;SDS011;4985;49.092;8.542;2022-07-21T07:36:52;6.72;;;4.45;;
9892;SDS011;4985;49.092;8.542;2022-07-21T07:39:19;5.20;;;4.68;;
9892;SDS011;4985;49.092;8.542;2022-07-21T07:41:46;6.65;;;4.90;;
9892;SDS011;4985;49.092;8.542;2022-07-21T07:44:12;6.18;;;4.40;;
9892;SDS011;4985;49.092;8.542;2022-07-21T07:46:39;7.07;;;5.00;;
9892;SDS011;4985;49.092;8.542;2022-07-21T07:49:05;6.20;;;4.80;;
9892;SDS011;4985;49.092;8.542;2022-07-21T07:51:32;6.07;;;4.90;;
9892;SDS011;4985;49.092;8.542;2022-07-21T07:54:00;6.05;;;4.18;;
9892;SDS011;4985;49.092;8.542;2022-07-21T07:56:28;7.62;;;4.35;;
9892;SDS011;4985;49.092;8.542;2022-07-21T07:58:55;8.15;;;4.53;;
9892;SDS011;4985;49.092;8.542;2022-07-21T08:01:22;5.80;;;4.28;;
9892;SDS011;4985;49.092;8.542;2022-07-21T08:03:48;7.82;;;4.85;;
9892;SDS011;4985;49.092;8.542;2022-07-21T08:06:15;7.43;;;4.50;;
9892;SDS011;4985;49.092;8.542;2022-07-21T08:08:41;6.45;;;4.43;;
9892;SDS011;4985;49.092;8.542;2022-07-21T08:11:09;6.07;;;4.37;;
9892;SDS011;4985;49.092;8.542;2022-07-21T08:13:38;4.95;;;4.45;;
9892;SDS011;4985;49.092;8.542;2022-07-21T08:16:05;4.72;;;4.05;;
9892;SDS011;4985;49.092;8.542;2022-07-21T08:18:32;8.98;;;4.03;;
9892;SDS011;4985;49.092;8.542;2022-07-21T08:20:59;6.30;;;4.50;;
9892;SDS011;4985;49.092;8.542;2022-07-21T08:23:25;6.30;;;3.92;;
9892;SDS011;4985;49.092;8.542;2022-07-21T08:25:53;5.87;;;4.22;;
9892;SDS011;4985;49.092;8.542;2022-07-21T08:28:20;6.55;;;4.18;;
9892;SDS011;4985;49.092;8.542;2022-07-21T08:30:47;5.85;;;4.50;;
9892;SDS011;4985;49.092;8.542;2022-07-21T08:33:14;6.45;;;4.20;;
9892;SDS011;4985;49.092;8.542;2022-07-21T08:35:41;5.78;;;4.00;;
9892;SDS011;4985;49.092;8.542;2022-07-21T08:38:08;6.28;;;4.35;;
9892;SDS011;4985;49.092;8.542;2022-07-21T08:40:37;5.20;;;4.35;;
9892;SDS011;4985;49.092;8.542;2022-07-21T08:43:05;5.45;;;4.45;;
9892;SDS011;4985;49.092;8.542;2022-07-21T08:45:35;4.28;;;3.87;;
9892;SDS011;4985;49.092;8.542;2022-07-21T08:48:02;5.05;;;4.50;;
9892;SDS011;4985;49.092;8.542;2022-07-21T08:50:30;5.80;;;4.18;;
9892;SDS011;4985;49.092;8.542;2022-07-21T08:52:59;6.05;;;4.22;;
9892;SDS011;4985;49.092;8.542;2022-07-21T08:55:27;6.12;;;3.95;;
9892;SDS011;4985;49.092;8.542;2022-07-21T08:57:55;5.82;;;4.10;;
9892;SDS011;4985;49.092;8.542;2022-07-21T09:00:22;5.53;;;4.12;;
9892;SDS011;4985;49.092;8.542;2022-07-21T09:02:50;6.15;;;4.32;;
9892;SDS011;4985;49.092;8.542;2022-07-21T09:05:34;4.95;;;4.05;;
9892;SDS011;4985;49.092;8.542;2022-07-21T09:08:01;6.87;;;3.67;;
9892;SDS011;4985;49.092;8.542;2022-07-21T09:10:29;6.18;;;4.15;;
9892;SDS011;4985;49.092;8.542;2022-07-21T09:12:58;4.62;;;3.87;;
9892;SDS011;4985;49.092;8.542;2022-07-21T09:15:26;4.60;;;3.97;;
9892;SDS011;4985;49.092;8.542;2022-07-21T09:18:09;5.50;;;4.32;;
9892;SDS011;4985;49.092;8.542;2022-07-21T09:20:36;6.10;;;4.62;;
9892;SDS011;4985;49.092;8.542;2022-07-21T09:23:05;4.37;;;3.78;;
9892;SDS011;4985;49.092;8.542;2022-07-21T09:25:37;8.43;;;5.62;;
9892;SDS011;4985;49.092;8.542;2022-07-21T09:28:09;4.55;;;3.92;;
9892;SDS011;4985;49.092;8.542;2022-07-21T09:30:48;6.32;;;4.62;;
9892;SDS011;4985;49.092;8.542;2022-07-21T09:33:22;7.00;;;4.40;;
9892;SDS011;4985;49.092;8.542;2022-07-21T09:35:57;5.20;;;4.70;;
9892;SDS011;4985;49.092;8.542;2022-07-21T09:38:26;5.68;;;4.35;;
9892;SDS011;4985;49.092;8.542;2022-07-21T09:40:54;8.15;;;4.57;;
9892;SDS011;4985;49.092;8.542;2022-07-21T09:43:31;6.70;;;4.40;;
9892;SDS011;4985;49.092;8.542;2022-07-21T09:46:07;7.05;;;4.55;;
9892;SDS011;4985;49.092;8.542;2022-07-21T09:48:38;4.60;;;4.07;;
9892;SDS011;4985;49.092;8.542;2022-07-21T09:51:19;5.60;;;4.07;;
9892;SDS011;4985;49.092;8.542;2022-07-21T09:53:51;4.97;;;4.00;;
9892;SDS011;4985;49.092;8.542;2022-07-21T09:56:19;5.90;;;4.60;;
9892;SDS011;4985;49.092;8.542;2022-07-21T09:58:47;5.55;;;4.72;;
9892;SDS011;4985;49.092;8.542;2022-07-21T10:01:15;6.75;;;4.40;;
9892;SDS011;4985;49.092;8.542;2022-07-21T10:03:44;5.45;;;4.55;;
9892;SDS011;4985;49.092;8.542;2022-07-21T10:06:12;5.72;;;4.45;;
9892;SDS011;4985;49.092;8.542;2022-07-21T10:08:41;6.22;;;4.40;;
9892;SDS011;4985;49.092;8.542;2022-07-21T10:11:09;4.25;;;3.83;;
9892;SDS011;4985;49.092;8.542;2022-07-21T10:13:36;7.62;;;4.07;;
9892;SDS011;4985;49.092;8.542;2022-07-21T10:16:04;6.20;;;3.70;;
9892;SDS011;4985;49.092;8.542;2022-07-21T10:18:32;6.32;;;3.80;;
9892;SDS011;4985;49.092;8.542;2022-07-21T10:21:04;3.83;;;3.45;;
9892;SDS011;4985;49.092;8.542;2022-07-21T10:23:39;5.80;;;3.70;;
9892;SDS011;4985;49.092;8.542;2022-07-21T10:26:08;5.03;;;3.33;;
9892;SDS011;4985;49.092;8.542;2022-07-21T10:28:36;5.30;;;3.53;;
9892;SDS011;4985;49.092;8.542;2022-07-21T10:31:12;4.62;;;3.65;;
9892;SDS011;4985;49.092;8.542;2022-07-21T10:33:56;5.05;;;3.75;;
9892;SDS011;4985;49.092;8.542;2022-07-21T10:36:45;6.90;;;4.15;;
9892;SDS011;4985;49.092;8.542;2022-07-21T10:39:19;4.35;;;3.35;;
9892;SDS011;4985;49.092;8.542;2022-07-21T10:41:50;4.12;;;2.80;;
9892;SDS011;4985;49.092;8.542;2022-07-21T10:47:13;5.20;;;3.45;;
9892;SDS011;4985;49.092;8.542;2022-07-21T10:49:42;4.57;;;3.70;;
9892;SDS011;4985;49.092;8.542;2022-07-21T10:55:17;6.45;;;3.85;;
9892;SDS011;4985;49.092;8.542;2022-07-21T11:00:37;4.82;;;3.05;;
9892;SDS011;4985;49.092;8.542;2022-07-21T11:03:13;4.57;;;3.40;;
9892;SDS011;4985;49.092;8.542;2022-07-21T11:08:41;5.22;;;3.47;;
9892;SDS011;4985;49.092;8.542;2022-07-21T11:11:11;5.60;;;3.80;;
9892;SDS011;4985;49.092;8.542;2022-07-21T11:13:58;5.25;;;3.25;;
9892;SDS011;4985;49.092;8.542;2022-07-21T11:19:35;5.68;;;3.47;;
9892;SDS011;4985;49.092;8.542;2022-07-21T11:22:05;4.60;;;2.90;;
9892;SDS011;4985;49.092;8.542;2022-07-21T11:24:34;4.57;;;3.47;;
9892;SDS011;4985;49.092;8.542;2022-07-21T11:27:03;4.47;;;3.25;;
9892;SDS011;4985;49.092;8.542;2022-07-21T11:29:31;3.05;;;2.72;;
9892;SDS011;4985;49.092;8.542;2022-07-21T11:31:59;6.90;;;3.15;;
9892;SDS011;4985;49.092;8.542;2022-07-21T11:34:36;4.00;;;3.42;;
9892;SDS011;4985;49.092;8.542;2022-07-21T11:37:05;3.90;;;3.00;;
9892;SDS011;4985;49.092;8.542;2022-07-21T11:39:32;3.65;;;3.08;;
9892;SDS011;4985;49.092;8.542;2022-07-21T11:42:02;3.15;;;2.85;;
9892;SDS011;4985;49.092;8.542;2022-07-21T11:44:30;3.87;;;3.03;;
9892;SDS011;4985;49.092;8.542;2022-07-21T11:46:57;4.00;;;2.97;;
9892;SDS011;4985;49.092;8.542;2022-07-21T11:49:24;3.22;;;2.92;;
9892;SDS011;4985;49.092;8.542;2022-07-21T11:51:52;6.10;;;3.30;;
9892;SDS011;4985;49.092;8.542;2022-07-21T11:54:22;6.90;;;3.37;;
9892;SDS011;4985;49.092;8.542;2022-07-21T11:56:50;4.35;;;3.30;;
9892;SDS011;4985;49.092;8.542;2022-07-21T11:59:18;3.50;;;2.70;;
9892;SDS011;4985;49.092;8.542;2022-07-21T12:01:53;3.30;;;2.75;;
9892;SDS011;4985;49.092;8.542;2022-07-21T12:04:26;3.62;;;2.85;;
9892;SDS011;4985;49.092;8.542;2022-07-21T12:07:12;3.92;;;2.37;;
9892;SDS011;4985;49.092;8.542;2022-07-21T12:09:44;5.28;;;2.53;;
9892;SDS011;4985;49.092;8.542;2022-07-21T12:12:12;3.03;;;2.70;;
9892;SDS011;4985;49.092;8.542;2022-07-21T12:14:50;3.37;;;2.62;;
9892;SDS011;4985;49.092;8.542;2022-07-21T12:17:17;2.85;;;2.45;;
9892;SDS011;4985;49.092;8.542;2022-07-21T12:19:58;4.60;;;2.78;;
9892;SDS011;4985;49.092;8.542;2022-07-21T12:22:32;3.03;;;2.55;;
9892;SDS011;4985;49.092;8.542;2022-07-21T12:25:03;3.15;;;2.70;;
9892;SDS011;4985;49.092;8.542;2022-07-21T12:27:32;3.35;;;2.80;;
9892;SDS011;4985;49.092;8.542;2022-07-21T12:30:02;3.72;;;2.75;;
9892;SDS011;4985;49.092;8.542;2022-07-21T12:32:39;7.78;;;2.97;;
9892;SDS011;4985;49.092;8.542;2022-07-21T12:35:18;5.35;;;3.10;;
9892;SDS011;4985;49.092;8.542;2022-07-21T12:38:00;3.67;;;2.60;;
9892;SDS011;4985;49.092;8.542;2022-07-21T12:40:38;4.57;;;2.60;;
9892;SDS011;4985;49.092;8.542;2022-07-21T12:43:07;3.95;;;3.10;;
9892;SDS011;4985;49.092;8.542;2022-07-21T12:45:47;2.72;;;2.35;;
9892;SDS011;4985;49.092;8.542;2022-07-21T12:48:17;4.50;;;2.67;;
9892;SDS011;4985;49.092;8.542;2022-07-21T12:50:58;4.20;;;2.33;;
9892;SDS011;4985;49.092;8.542;2022-07-21T12:53:26;3.17;;;2.37;;
9892;SDS011;4985;49.092;8.542;2022-07-21T12:55:53;4.45;;;2.70;;
9892;SDS011;4985;49.092;8.542;2022-07-21T12:58:20;3.35;;;2.55;;
9892;SDS011;4985;49.092;8.542;2022-07-21T13:00:48;3.75;;;2.90;;
9892;SDS011;4985;49.092;8.542;2022-07-21T13:03:15;2.92;;;2.62;;
9892;SDS011;4985;49.092;8.542;2022-07-21T13:05:42;3.37;;;2.78;;
9892;SDS011;4985;49.092;8.542;2022-07-21T13:08:08;3.03;;;2.40;;
9892;SDS011;4985;49.092;8.542;2022-07-21T13:10:35;3.10;;;2.72;;
9892;SDS011;4985;49.092;8.542;2022-07-21T13:13:02;3.12;;;2.83;;
9892;SDS011;4985;49.092;8.542;2022-07-21T13:15:28;3.42;;;2.80;;
9892;SDS011;4985;49.092;8.542;2022-07-21T13:17:56;6.05;;;2.70;;
9892;SDS011;4985;49.092;8.542;2022-07-21T13:20:23;4.62;;;2.70;;
9892;SDS011;4985;49.092;8.542;2022-07-21T13:22:50;5.87;;;2.83;;
9892;SDS011;4985;49.092;8.542;2022-07-21T13:25:16;3.17;;;2.70;;
9892;SDS011;4985;49.092;8.542;2022-07-21T13:27:43;5.53;;;2.95;;
9892;SDS011;4985;49.092;8.542;2022-07-21T13:30:10;4.93;;;2.75;;
9892;SDS011;4985;49.092;8.542;2022-07-21T13:32:37;3.97;;;3.20;;
9892;SDS011;4985;49.092;8.542;2022-07-21T13:35:05;5.12;;;3.08;;
9892;SDS011;4985;49.092;8.542;2022-07-21T13:37:33;4.22;;;3.00;;
9892;SDS011;4985;49.092;8.542;2022-07-21T13:40:00;5.30;;;2.85;;
9892;SDS011;4985;49.092;8.542;2022-07-21T13:42:26;3.75;;;2.90;;
9892;SDS011;4985;49.092;8.542;2022-07-21T13:44:53;3.05;;;2.60;;
9892;SDS011;4985;49.092;8.542;2022-07-21T13:47:19;4.57;;;3.20;;
9892;SDS011;4985;49.092;8.542;2022-07-21T13:49:46;3.75;;;2.85;;
9892;SDS011;4985;49.092;8.542;2022-07-21T13:52:14;3.95;;;2.85;;
9892;SDS011;4985;49.092;8.542;2022-07-21T13:54:41;4.82;;;3.10;;
9892;SDS011;4985;49.092;8.542;2022-07-21T13:57:07;6.40;;;2.75;;
9892;SDS011;4985;49.092;8.542;2022-07-21T13:59:34;4.30;;;3.35;;
9892;SDS011;4985;49.092;8.542;2022-07-21T14:02:00;3.53;;;2.90;;
9892;SDS011;4985;49.092;8.542;2022-07-21T14:04:27;5.37;;;2.70;;
9892;SDS011;4985;49.092;8.542;2022-07-21T14:06:54;3.95;;;3.03;;
9892;SDS011;4985;49.092;8.542;2022-07-21T14:09:22;3.78;;;2.65;;
9892;SDS011;4985;49.092;8.542;2022-07-21T14:11:48;3.67;;;2.70;;
9892;SDS011;4985;49.092;8.542;2022-07-21T14:14:15;3.17;;;2.47;;
9892;SDS011;4985;49.092;8.542;2022-07-21T14:16:47;4.18;;;2.70;;
9892;SDS011;4985;49.092;8.542;2022-07-21T14:19:15;4.28;;;2.97;;
9892;SDS011;4985;49.092;8.542;2022-07-21T14:21:41;4.53;;;2.80;;
9892;SDS011;4985;49.092;8.542;2022-07-21T14:24:08;5.28;;;3.12;;
9892;SDS011;4985;49.092;8.542;2022-07-21T14:26:54;3.58;;;3.05;;
9892;SDS011;4985;49.092;8.542;2022-07-21T14:29:20;2.90;;;2.58;;
9892;SDS011;4985;49.092;8.542;2022-07-21T14:31:47;3.97;;;2.72;;
9892;SDS011;4985;49.092;8.542;2022-07-21T14:34:14;5.97;;;3.00;;
9892;SDS011;4985;49.092;8.542;2022-07-21T14:36:41;4.40;;;2.90;;
9892;SDS011;4985;49.092;8.542;2022-07-21T14:39:08;3.67;;;2.97;;
9892;SDS011;4985;49.092;8.542;2022-07-21T14:41:34;3.75;;;2.80;;
9892;SDS011;4985;49.092;8.542;2022-07-21T14:44:02;3.83;;;2.95;;
9892;SDS011;4985;49.092;8.542;2022-07-21T14:46:29;3.37;;;3.00;;
9892;SDS011;4985;49.092;8.542;2022-07-21T14:48:56;3.60;;;2.70;;
9892;SDS011;4985;49.092;8.542;2022-07-21T14:51:23;5.30;;;2.70;;
9892;SDS011;4985;49.092;8.542;2022-07-21T14:53:49;3.72;;;2.70;;
9892;SDS011;4985;49.092;8.542;2022-07-21T14:56:16;3.53;;;2.83;;
9892;SDS011;4985;49.092;8.542;2022-07-21T14:58:43;3.40;;;3.05;;
9892;SDS011;4985;49.092;8.542;2022-07-21T15:01:11;4.82;;;2.90;;
9892;SDS011;4985;49.092;8.542;2022-07-21T15:03:37;3.45;;;2.83;;
9892;SDS011;4985;49.092;8.542;2022-07-21T15:06:04;3.25;;;2.72;;
9892;SDS011;4985;49.092;8.542;2022-07-21T15:08:31;2.85;;;2.62;;
9892;SDS011;4985;49.092;8.542;2022-07-21T15:10:58;4.10;;;3.08;;
9892;SDS011;4985;49.092;8.542;2022-07-21T15:13:24;3.92;;;2.60;;
9892;SDS011;4985;49.092;8.542;2022-07-21T15:15:53;3.28;;;2.83;;
9892;SDS011;4985;49.092;8.542;2022-07-21T15:18:21;2.83;;;2.53;;
9892;SDS011;4985;49.092;8.542;2022-07-21T15:20:48;4.28;;;2.65;;
9892;SDS011;4985;49.092;8.542;2022-07-21T15:23:15;6.47;;;3.10;;
9892;SDS011;4985;49.092;8.542;2022-07-21T15:25:41;3.58;;;2.80;;
9892;SDS011;4985;49.092;8.542;2022-07-21T15:28:09;4.18;;;3.15;;
9892;SDS011;4985;49.092;8.542;2022-07-21T15:30:36;3.90;;;3.05;;
9892;SDS011;4985;49.092;8.542;2022-07-21T15:33:03;3.30;;;2.90;;
9892;SDS011;4985;49.092;8.542;2022-07-21T15:35:31;3.95;;;2.65;;
9892;SDS011;4985;49.092;8.542;2022-07-21T15:37:57;4.45;;;3.10;;